Time;durP1;ratioP1;P1;durP2;ratioP2;P2;SDS_P1;SDS_P2;PMS_P1;PMS_P2;Temp;Humidity;BMP_temperature;BMP_pressure;BME280_temperature;BME280_humidity;BME280_pressure;Samples;Min_cycle;Max_cycle;Signal;HPM_P1;HPM_P2
2023/04/19 00:02:10;;;;;;;9.00;8.57;;;;;;;9.45;100.00;92422.31;5111306;28;20228;-73
2023/04/19 00:04:37;;;;;;;8.97;8.47;;;;;;;9.55;100.00;92419.63;5111466;28;20204;-73
2023/04/19 00:07:02;;;;;;;9.27;8.80;;;;;;;9.73;100.00;92424.09;5112368;28;20209;-72
2023/04/19 00:09:28;;;;;;;9.37;8.97;;;;;;;9.36;100.00;92367.44;5111578;28;20203;-73
2023/04/19 00:11:53;;;;;;;9.03;8.63;;;;;;;9.27;100.00;92371.72;5114198;28;20315;-73
2023/04/19 00:14:18;;;;;;;9.20;8.80;;;;;;;9.69;100.00;92425.72;5110820;28;20879;-73
2023/04/19 00:16:44;;;;;;;9.30;8.77;;;;;;;9.69;100.00;92410.09;5111587;28;20227;-73
2023/04/19 00:19:10;;;;;;;10.40;9.80;;;;;;;9.51;100.00;92405.56;5113881;28;20177;-73
2023/04/19 00:21:35;;;;;;;10.30;9.80;;;;;;;9.38;100.00;92391.38;5112293;28;20223;-73
2023/04/19 00:24:02;;;;;;;10.00;9.50;;;;;;;9.49;100.00;92405.84;5111530;28;20215;-73
2023/04/19 00:26:27;;;;;;;9.80;9.30;;;;;;;9.42;100.00;92386.38;5110404;28;20220;-73
2023/04/19 00:28:53;;;;;;;9.73;9.33;;;;;;;9.60;100.00;92398.72;5112412;28;20208;-73
2023/04/19 00:31:19;;;;;;;8.50;8.10;;;;;;;9.56;100.00;92400.31;5112065;28;20227;-73
2023/04/19 00:33:44;;;;;;;10.60;10.10;;;;;;;9.49;100.00;92402.47;5110992;28;20189;-73
2023/04/19 00:36:09;;;;;;;10.00;9.50;;;;;;;9.58;100.00;92398.22;5110178;28;20215;-74
2023/04/19 00:38:35;;;;;;;9.87;9.37;;;;;;;9.50;100.00;92391.00;5110307;28;20214;-73
2023/04/19 00:41:00;;;;;;;10.40;9.73;;;;;;;9.51;100.00;92408.16;5110377;28;20204;-73
2023/04/19 00:43:25;;;;;;;10.13;9.63;;;;;;;9.52;100.00;92401.94;5110674;28;20234;-73
2023/04/19 00:45:51;;;;;;;9.83;9.33;;;;;;;9.34;100.00;92386.97;5108280;28;20221;-73
2023/04/19 00:48:17;;;;;;;10.63;9.97;;;;;;;9.35;100.00;92399.72;5111655;28;20192;-74
2023/04/19 00:50:43;;;;;;;10.30;9.73;;;;;;;9.37;100.00;92396.88;5110200;28;20241;-74
2023/04/19 00:53:09;;;;;;;9.93;9.43;;;;;;;9.28;100.00;92393.31;5110445;28;20794;-74
2023/04/19 00:55:37;;;;;;;9.07;8.67;;;;;;;9.16;100.00;92385.88;5110158;28;20232;-74
2023/04/19 00:58:04;;;;;;;11.57;10.97;;;;;;;9.35;100.00;92397.13;5110302;28;20191;-74
2023/04/19 01:00:31;;;;;;;11.00;10.30;;;;;;;9.31;100.00;92395.34;5107613;28;20255;-74
2023/04/19 01:02:56;;;;;;;10.43;9.93;;;;;;;9.34;100.00;92371.34;5111904;28;20220;-74
2023/04/19 01:05:22;;;;;;;10.50;9.90;;;;;;;9.37;100.00;92370.81;5109974;28;20739;-74
2023/04/19 01:07:47;;;;;;;10.57;9.97;;;;;;;9.58;100.00;92391.19;5110627;28;20184;-74
2023/04/19 01:10:13;;;;;;;10.43;9.93;;;;;;;9.60;100.00;92376.03;5110536;28;20227;-75
2023/04/19 01:12:39;;;;;;;11.60;11.00;;;;;;;9.35;100.00;92362.50;5110957;28;20236;-74
2023/04/19 01:15:04;;;;;;;10.03;9.53;;;;;;;9.37;100.00;92370.81;5109813;28;20235;-74
2023/04/19 01:17:31;;;;;;;10.77;10.17;;;;;;;9.49;100.00;92381.63;5108992;28;20653;-74
2023/04/19 01:20:02;;;;;;;10.37;9.77;;;;;;;9.38;100.00;92382.78;5109173;28;20773;-74
2023/04/19 01:22:28;;;;;;;10.30;9.80;;;;;;;9.38;100.00;92369.75;5111564;28;20176;-73
2023/04/19 01:24:54;;;;;;;10.23;9.63;;;;;;;9.07;100.00;92376.31;5109186;28;20265;-74
2023/04/19 01:27:20;;;;;;;10.93;10.23;;;;;;;9.14;100.00;92376.75;5110683;28;20192;-74
2023/04/19 01:29:45;;;;;;;9.70;9.20;;;;;;;9.04;100.00;92350.84;5109025;28;20230;-74
2023/04/19 01:32:12;;;;;;;9.90;9.40;;;;;;;9.21;100.00;92372.03;5112304;28;20218;-74
2023/04/19 01:34:39;;;;;;;10.43;9.83;;;;;;;9.28;100.00;92359.44;5110649;28;20830;-74
2023/04/19 01:37:04;;;;;;;10.60;10.10;;;;;;;9.26;100.00;92380.56;5110004;28;20221;-74
2023/04/19 01:39:30;;;;;;;9.73;9.23;;;;;;;9.14;100.00;92368.94;5111117;28;20210;-74
2023/04/19 01:41:55;;;;;;;9.43;8.83;;;;;;;9.24;100.00;92376.69;5109035;28;20265;-74
2023/04/19 01:44:21;;;;;;;9.50;9.00;;;;;;;9.17;100.00;92377.00;5110965;28;20279;-74
2023/04/19 01:46:47;;;;;;;10.07;9.37;;;;;;;9.20;100.00;92373.84;5109827;28;20203;-74
2023/04/19 01:49:12;;;;;;;9.57;9.07;;;;;;;9.36;100.00;92377.84;5110022;28;20199;-74
2023/04/19 01:51:38;;;;;;;10.40;9.67;;;;;;;9.21;100.00;92364.22;5110868;28;20252;-75
2023/04/19 01:54:03;;;;;;;9.37;8.63;;;;;;;9.03;100.00;92357.84;5110663;28;20184;-74
2023/04/19 01:56:29;;;;;;;9.40;9.00;;;;;;;9.28;100.00;92367.25;5110753;28;20225;-74
2023/04/19 01:58:55;;;;;;;9.83;9.33;;;;;;;9.24;100.00;92366.25;5111490;28;20203;-74
2023/04/19 02:01:20;;;;;;;10.07;9.57;;;;;;;9.46;100.00;92369.16;5108621;28;20221;-74
2023/04/19 02:03:46;;;;;;;9.00;8.60;;;;;;;8.91;100.00;92369.69;5110575;28;20222;-74
2023/04/19 02:06:12;;;;;;;9.97;9.47;;;;;;;9.03;100.00;92354.47;5110311;28;20267;-74
2023/04/19 02:08:41;;;;;;;10.47;9.77;;;;;;;9.27;100.00;92370.91;5109538;28;20225;-74
2023/04/19 02:11:08;;;;;;;9.17;8.67;;;;;;;9.13;100.00;92355.19;5111215;28;20219;-74
2023/04/19 02:13:34;;;;;;;9.63;9.13;;;;;;;9.28;100.00;92373.25;5113659;28;20180;-74
2023/04/19 02:16:01;;;;;;;10.03;9.33;;;;;;;9.24;100.00;92364.44;5115110;28;20227;-74
2023/04/19 02:18:28;;;;;;;10.27;9.77;;;;;;;9.21;100.00;92374.63;5115943;28;20274;-75
2023/04/19 02:20:54;;;;;;;9.57;9.07;;;;;;;9.20;100.00;92365.25;5113120;28;20326;-74
2023/04/19 02:23:20;;;;;;;10.43;9.93;;;;;;;9.18;100.00;92354.34;5113915;28;21159;-74
2023/04/19 02:25:45;;;;;;;9.77;9.17;;;;;;;9.17;100.00;92366.59;5112396;28;20269;-74
2023/04/19 02:28:11;;;;;;;10.57;10.03;;;;;;;9.08;100.00;92367.44;5113552;28;20194;-74
2023/04/19 02:30:36;;;;;;;10.63;10.00;;;;;;;8.77;100.00;92348.72;5112863;28;20216;-74
2023/04/19 02:33:02;;;;;;;9.77;9.17;;;;;;;8.57;100.00;92355.91;5113565;28;20195;-74
2023/04/19 02:35:27;;;;;;;11.30;10.37;;;;;;;8.68;100.00;92363.38;5112696;28;20233;-74
2023/04/19 02:37:53;;;;;;;10.27;9.57;;;;;;;8.55;100.00;92347.59;5114691;28;20203;-74
2023/04/19 02:40:18;;;;;;;9.87;9.37;;;;;;;8.61;100.00;92356.91;5114455;28;20340;-74
2023/04/19 02:42:43;;;;;;;10.00;9.40;;;;;;;8.21;100.00;92321.56;5112873;28;20191;-74
2023/04/19 02:45:09;;;;;;;10.33;9.43;;;;;;;8.63;100.00;92347.03;5113171;28;20208;-74
2023/04/19 02:47:34;;;;;;;9.63;9.03;;;;;;;8.85;100.00;92349.97;5113365;28;20222;-74
2023/04/19 02:50:00;;;;;;;10.80;10.20;;;;;;;8.93;100.00;92344.16;5113612;28;20224;-74
2023/04/19 02:52:26;;;;;;;10.90;10.27;;;;;;;8.92;100.00;92334.81;5113367;28;20192;-74
2023/04/19 02:54:52;;;;;;;9.23;8.73;;;;;;;9.20;100.00;92365.25;5112900;28;20215;-74
2023/04/19 02:57:17;;;;;;;9.77;9.27;;;;;;;9.04;100.00;92358.66;5113592;28;20190;-74
2023/04/19 02:59:43;;;;;;;11.33;10.63;;;;;;;9.06;100.00;92351.31;5112228;28;20228;-74
2023/04/19 03:02:08;;;;;;;12.07;11.30;;;;;;;9.13;100.00;92362.19;5112416;28;20207;-74
2023/04/19 03:04:35;;;;;;;12.03;11.13;;;;;;;9.05;100.00;92360.19;5111622;28;21016;-74
2023/04/19 03:07:00;;;;;;;11.10;10.33;;;;;;;8.87;100.00;92360.88;5112143;28;20192;-74
2023/04/19 03:09:26;;;;;;;10.57;9.73;;;;;;;9.08;100.00;92370.06;5113444;28;20184;-74
2023/04/19 03:11:52;;;;;;;10.37;9.77;;;;;;;8.67;100.00;92361.06;5113124;28;20185;-74
2023/04/19 03:14:17;;;;;;;11.30;10.60;;;;;;;8.70;100.00;92360.50;5112722;28;20217;-70
2023/04/19 03:16:42;;;;;;;11.03;10.43;;;;;;;8.73;100.00;92358.13;5113143;28;20218;-70
2023/04/19 03:19:08;;;;;;;12.23;11.53;;;;;;;8.43;100.00;92354.97;5113741;28;20966;-70
2023/04/19 03:21:33;;;;;;;10.57;9.97;;;;;;;8.62;100.00;92369.69;5112263;28;20245;-71
2023/04/19 03:24:00;;;;;;;10.80;10.10;;;;;;;8.64;100.00;92357.16;5111478;28;20204;-70
2023/04/19 03:26:25;;;;;;;11.93;11.07;;;;;;;8.50;100.00;92355.47;5111959;28;20220;-70
2023/04/19 03:28:51;;;;;;;12.97;12.03;;;;;;;8.32;100.00;92361.28;5112929;28;20226;-70
2023/04/19 03:31:16;;;;;;;11.93;11.17;;;;;;;8.27;100.00;92350.91;5113548;28;20216;-68
2023/04/19 03:33:41;;;;;;;11.20;10.50;;;;;;;8.65;100.00;92355.34;5112801;28;20214;-69
2023/04/19 03:36:07;;;;;;;11.80;11.00;;;;;;;8.69;100.00;92354.53;5112193;28;20223;-70
2023/04/19 03:38:32;;;;;;;12.27;11.47;;;;;;;8.62;100.00;92340.28;5112307;28;20209;-70
2023/04/19 03:40:58;;;;;;;11.40;10.70;;;;;;;8.92;100.00;92353.03;5111125;28;20248;-71
2023/04/19 03:43:23;;;;;;;11.10;10.50;;;;;;;8.85;100.00;92358.56;5112997;28;20776;-69
2023/04/19 03:45:49;;;;;;;11.23;10.53;;;;;;;8.85;100.00;92350.75;5111771;28;20254;-70
2023/04/19 03:48:14;;;;;;;11.30;10.60;;;;;;;8.99;100.00;92351.66;5108794;28;20200;-72
2023/04/19 03:50:39;;;;;;;10.77;9.83;;;;;;;8.88;100.00;92350.19;5110105;28;20243;-73
2023/04/19 03:53:05;;;;;;;14.33;12.83;;;;;;;8.68;100.00;92347.78;5110953;28;20188;-73
2023/04/19 03:55:30;;;;;;;13.40;12.27;;;;;;;8.64;100.00;92351.19;5110584;28;20216;-70
2023/04/19 03:57:56;;;;;;;11.80;11.10;;;;;;;8.51;100.00;92344.78;5112055;28;20188;-71
2023/04/19 04:00:21;;;;;;;11.73;10.80;;;;;;;8.58;100.00;92349.66;5110906;28;20224;-71
2023/04/19 04:02:47;;;;;;;11.67;10.90;;;;;;;8.42;100.00;92353.44;5110810;28;20258;-70
2023/04/19 04:05:12;;;;;;;12.43;11.60;;;;;;;8.33;100.00;92347.25;5110472;28;20337;-74
2023/04/19 04:07:37;;;;;;;12.43;11.47;;;;;;;8.67;100.00;92350.66;5110700;28;20208;-71
2023/04/19 04:10:03;;;;;;;10.73;10.13;;;;;;;8.42;100.00;92349.00;5111138;28;20243;-70
2023/04/19 04:12:29;;;;;;;10.43;9.73;;;;;;;8.48;100.00;92350.53;5109714;28;20187;-69
2023/04/19 04:14:54;;;;;;;10.10;9.57;;;;;;;8.51;100.00;92352.59;5110200;28;20227;-70
2023/04/19 04:17:20;;;;;;;11.43;10.73;;;;;;;8.39;100.00;92353.97;5110692;28;20184;-72
2023/04/19 04:19:45;;;;;;;11.67;10.77;;;;;;;8.20;100.00;92343.41;5111935;28;20233;-69
2023/04/19 04:22:11;;;;;;;11.57;10.77;;;;;;;8.44;100.00;92354.72;5112096;28;20191;-73
2023/04/19 04:24:37;;;;;;;11.73;10.73;;;;;;;8.31;100.00;92346.75;5112525;28;20237;-69
2023/04/19 04:27:03;;;;;;;11.50;10.80;;;;;;;8.86;100.00;92356.72;5110742;28;20184;-76
2023/04/19 04:29:28;;;;;;;12.83;11.80;;;;;;;8.93;100.00;92357.19;5111095;28;20211;-76
2023/04/19 04:31:55;;;;;;;12.07;11.40;;;;;;;9.10;100.00;92370.56;5110457;28;20196;-75
2023/04/19 04:34:21;;;;;;;12.50;11.60;;;;;;;8.73;100.00;92358.13;5110666;28;20260;-75
2023/04/19 04:36:49;;;;;;;10.63;10.00;;;;;;;8.53;100.00;92365.31;5111110;28;20211;-76
2023/04/19 04:39:15;;;;;;;11.80;11.10;;;;;;;8.60;100.00;92370.97;5111122;28;20188;-75
2023/04/19 04:41:40;;;;;;;10.40;9.80;;;;;;;8.63;100.00;92357.44;5109780;28;20287;-75
2023/04/19 04:44:07;;;;;;;11.53;10.93;;;;;;;8.35;100.00;92368.56;5110601;28;20261;-75
2023/04/19 04:46:33;;;;;;;11.03;10.47;;;;;;;8.53;100.00;92365.31;5110204;28;20343;-74
2023/04/19 04:48:58;;;;;;;11.43;10.73;;;;;;;8.36;100.00;92346.72;5108550;28;20185;-77
2023/04/19 04:51:25;;;;;;;12.47;11.57;;;;;;;8.66;100.00;92377.69;5106170;28;20226;-69
2023/04/19 04:53:50;;;;;;;10.33;9.73;;;;;;;8.53;100.00;92363.47;5110579;28;20207;-69
2023/04/19 04:56:15;;;;;;;11.30;10.60;;;;;;;8.49;100.00;92379.91;5108959;28;20220;-71
2023/04/19 04:58:41;;;;;;;10.23;9.53;;;;;;;8.68;100.00;92373.78;5106467;28;20184;-71
2023/04/19 05:01:06;;;;;;;15.70;14.73;;;;;;;8.63;100.00;92380.84;5108281;28;20227;-70
2023/04/19 05:03:31;;;;;;;11.43;10.73;;;;;;;8.49;100.00;92364.31;5110127;28;20261;-70
2023/04/19 05:05:57;;;;;;;11.37;10.57;;;;;;;8.69;100.00;92369.34;5108604;28;20236;-71
2023/04/19 05:08:24;;;;;;;14.03;12.83;;;;;;;8.81;100.00;92378.34;5108901;28;20306;-70
2023/04/19 05:10:49;;;;;;;12.83;11.97;;;;;;;9.13;100.00;92381.22;5107273;28;20222;-69
2023/04/19 05:13:15;;;;;;;11.17;10.47;;;;;;;8.87;100.00;92371.28;5107658;28;20184;-69
2023/04/19 05:15:40;;;;;;;11.23;10.53;;;;;;;9.06;100.00;92378.13;5108752;28;20222;-69
2023/04/19 05:18:09;;;;;;;12.33;11.57;;;;;;;9.06;100.00;92369.53;5110711;28;20195;-70
2023/04/19 05:20:34;;;;;;;13.03;12.00;;;;;;;8.78;100.00;92376.31;5108435;28;20230;-70
2023/04/19 05:23:02;;;;;;;12.37;11.47;;;;;;;9.19;100.00;92381.94;5109461;28;20223;-71
2023/04/19 05:25:28;;;;;;;12.50;11.40;;;;;;;9.19;100.00;92374.91;5108389;28;20228;-77
2023/04/19 05:27:53;;;;;;;10.83;10.13;;;;;;;9.26;99.71;92380.56;5110684;28;20209;-74
2023/04/19 05:30:18;;;;;;;12.20;11.40;;;;;;;9.23;99.80;92382.94;5108880;28;20224;-75
2023/04/19 05:32:44;;;;;;;11.57;10.77;;;;;;;9.48;99.40;92388.66;5110589;28;20244;-74
2023/04/19 05:35:10;;;;;;;11.20;10.60;;;;;;;9.39;98.68;92386.94;5109684;28;20218;-74
2023/04/19 05:37:35;;;;;;;11.10;10.40;;;;;;;9.50;99.14;92391.78;5111067;28;20172;-74
2023/04/19 05:40:04;;;;;;;11.60;10.90;;;;;;;9.34;99.74;92386.97;5109172;28;20226;-74
2023/04/19 05:42:30;;;;;;;10.23;9.63;;;;;;;9.43;99.28;92390.56;5111078;28;20221;-74
2023/04/19 05:44:55;;;;;;;10.43;9.83;;;;;;;8.98;100.00;92378.72;5109077;28;20232;-74
2023/04/19 05:47:21;;;;;;;10.33;9.63;;;;;;;9.34;99.13;92368.75;5110190;28;20227;-74
2023/04/19 05:49:46;;;;;;;12.00;11.17;;;;;;;9.61;97.56;92397.66;5108615;28;21952;-73
2023/04/19 05:52:11;;;;;;;9.27;8.77;;;;;;;9.48;96.61;92399.09;5110791;28;20186;-74
2023/04/19 05:54:37;;;;;;;10.83;10.27;;;;;;;9.58;96.73;92399.00;5108384;28;20733;-75
2023/04/19 05:57:02;;;;;;;11.30;10.70;;;;;;;9.43;97.83;92393.16;5109885;28;20688;-74
2023/04/19 05:59:28;;;;;;;10.90;10.23;;;;;;;9.28;99.33;92398.50;5110385;28;20188;-74
2023/04/19 06:01:55;;;;;;;11.77;11.00;;;;;;;9.22;100.00;92395.19;5108140;28;20219;-74
2023/04/19 06:04:20;;;;;;;34.33;32.20;;;;;;;9.29;99.73;92400.84;5109293;28;20215;-74
2023/04/19 06:06:46;;;;;;;11.90;11.13;;;;;;;9.14;100.00;92397.59;5109116;28;20216;-74
2023/04/19 06:09:12;;;;;;;12.27;11.33;;;;;;;9.60;98.57;92403.94;5109741;28;20204;-74
2023/04/19 06:11:38;;;;;;;10.57;9.97;;;;;;;9.67;97.95;92406.97;5109329;28;20245;-74
2023/04/19 06:14:04;;;;;;;12.57;11.70;;;;;;;9.80;98.22;92395.88;5108669;28;20180;-74
2023/04/19 06:16:29;;;;;;;14.67;13.70;;;;;;;9.98;97.18;92404.81;5110464;28;20224;-73
2023/04/19 06:18:55;;;;;;;11.70;10.90;;;;;;;10.03;97.87;92392.47;5108582;28;20238;-74
2023/04/19 06:21:21;;;;;;;12.10;11.30;;;;;;;9.84;95.79;92380.47;5108588;28;20257;-74
2023/04/19 06:23:46;;;;;;;12.83;11.93;;;;;;;9.72;96.52;92380.84;5109238;28;20211;-74
2023/04/19 06:26:12;;;;;;;13.23;12.30;;;;;;;9.71;99.79;92406.13;5109988;28;20228;-70
2023/04/19 06:28:37;;;;;;;11.83;11.13;;;;;;;9.80;98.02;92403.69;5108696;28;20180;-69
2023/04/19 06:31:03;;;;;;;11.93;11.23;;;;;;;9.65;97.16;92399.44;5105236;28;20227;-70
2023/04/19 06:33:28;;;;;;;11.43;10.50;;;;;;;9.76;97.67;92415.72;5107538;28;20223;-69
2023/04/19 06:35:54;;;;;;;11.43;10.73;;;;;;;9.61;96.76;92414.06;5107620;28;20290;-70
2023/04/19 06:38:19;;;;;;;15.00;14.00;;;;;;;10.02;96.27;92409.19;5108329;28;20222;-70
2023/04/19 06:40:44;;;;;;;11.43;10.73;;;;;;;9.61;97.89;92413.28;5108897;28;20224;-71
2023/04/19 06:43:10;;;;;;;11.93;11.03;;;;;;;9.23;99.74;92401.19;5109176;28;20188;-69
2023/04/19 06:45:35;;;;;;;11.47;10.73;;;;;;;9.90;96.03;92400.22;5108180;28;20227;-70
2023/04/19 06:48:01;;;;;;;9.70;9.20;;;;;;;9.82;95.21;92393.78;5108395;28;20182;-70
2023/04/19 06:50:26;;;;;;;10.83;10.23;;;;;;;10.24;94.47;92409.44;5108206;28;20228;-70
2023/04/19 06:52:52;;;;;;;11.40;10.60;;;;;;;10.33;93.62;92415.59;5107974;28;20199;-70
2023/04/19 06:55:17;;;;;;;13.87;12.57;;;;;;;10.95;92.46;92417.84;5109374;28;20235;-71
2023/04/19 06:57:43;;;;;;;11.17;10.57;;;;;;;11.33;90.68;92419.28;5109502;28;20189;-71
2023/04/19 07:00:09;;;;;;;16.27;14.67;;;;;;;11.37;89.18;92429.94;5111653;28;20362;-70
2023/04/19 07:02:35;;;;;;;10.50;9.90;;;;;;;10.60;91.34;92407.91;5112525;28;20246;-70
2023/04/19 07:05:00;;;;;;;11.00;10.40;;;;;;;11.17;89.43;92431.03;5114949;28;20223;-70
2023/04/19 07:07:25;;;;;;;11.63;11.03;;;;;;;10.48;91.09;92433.66;5112347;28;20193;-70
2023/04/19 07:09:51;;;;;;;10.37;9.77;;;;;;;10.54;93.49;92429.13;5113029;28;20238;-70
2023/04/19 07:12:16;;;;;;;10.33;9.73;;;;;;;10.89;89.90;92434.66;5111678;28;20215;-70
2023/04/19 07:14:41;;;;;;;10.80;10.07;;;;;;;11.12;88.18;92433.75;5112779;28;20236;-71
2023/04/19 07:17:07;;;;;;;11.17;10.00;;;;;;;11.02;89.17;92433.13;5113340;28;20189;-70
2023/04/19 07:19:34;;;;;;;11.70;10.93;;;;;;;11.04;88.50;92425.78;5113770;28;20195;-70
2023/04/19 07:21:59;;;;;;;10.10;9.50;;;;;;;11.46;85.61;92415.16;5112376;28;20305;-70
2023/04/19 07:24:26;;;;;;;10.20;9.60;;;;;;;10.78;87.71;92396.69;5111795;28;20215;-70
2023/04/19 07:26:52;;;;;;;9.53;9.03;;;;;;;11.45;87.27;92439.75;5113806;28;20180;-70
2023/04/19 07:29:17;;;;;;;11.07;10.47;;;;;;;11.58;86.83;92435.63;5113517;28;20249;-70
2023/04/19 07:31:43;;;;;;;10.00;9.50;;;;;;;11.23;88.77;92429.91;5112095;28;20243;-70
2023/04/19 07:34:09;;;;;;;10.33;9.73;;;;;;;11.59;84.55;92421.47;5114029;28;20335;-69
2023/04/19 07:36:36;;;;;;;9.60;9.13;;;;;;;12.57;81.61;92432.91;5112398;28;20283;-70
2023/04/19 07:39:03;;;;;;;9.87;9.30;;;;;;;11.97;83.05;92439.34;5111512;28;20215;-70
2023/04/19 07:41:29;;;;;;;10.73;10.13;;;;;;;12.35;81.63;92434.69;5110482;28;20242;-69
2023/04/19 07:43:54;;;;;;;9.80;9.17;;;;;;;12.77;79.66;92418.59;5110888;28;20218;-70
2023/04/19 07:46:20;;;;;;;10.80;9.80;;;;;;;12.21;81.45;92439.16;5111320;28;20241;-70
2023/04/19 07:48:45;;;;;;;10.23;9.43;;;;;;;12.44;79.71;92438.16;5112479;28;20191;-71
2023/04/19 07:51:13;;;;;;;10.23;9.73;;;;;;;12.24;80.25;92441.19;5110958;28;20216;-70
2023/04/19 07:53:39;;;;;;;9.80;9.27;;;;;;;11.79;81.36;92442.84;5113117;28;20222;-70
2023/04/19 07:56:08;;;;;;;10.43;9.83;;;;;;;12.33;81.43;92432.34;5109962;28;20220;-67
2023/04/19 07:58:38;;;;;;;9.63;9.13;;;;;;;11.97;81.08;92441.22;5110904;28;20248;-72
2023/04/19 08:01:04;;;;;;;10.60;10.00;;;;;;;11.78;83.26;92419.59;5108893;28;20269;-70
2023/04/19 08:03:30;;;;;;;10.13;9.57;;;;;;;11.78;82.89;92430.81;5112055;28;20457;-70
2023/04/19 08:05:56;;;;;;;9.87;9.37;;;;;;;11.99;81.75;92436.44;5111301;28;20248;-69
2023/04/19 08:08:22;;;;;;;10.37;9.87;;;;;;;12.09;81.15;92436.25;5111825;28;20190;-70
2023/04/19 08:10:47;;;;;;;10.40;9.80;;;;;;;12.73;80.21;92420.25;5110137;28;20283;-70
2023/04/19 08:13:13;;;;;;;10.03;9.47;;;;;;;12.52;80.13;92434.84;5112050;28;20196;-71
2023/04/19 08:15:38;;;;;;;9.73;8.87;;;;;;;13.09;78.60;92418.41;5110193;28;20227;-71
2023/04/19 08:18:04;;;;;;;10.23;9.73;;;;;;;12.72;79.65;92431.78;5110299;28;20176;-72
2023/04/19 08:20:31;;;;;;;13.03;12.33;;;;;;;12.93;78.85;92415.31;5108872;28;20227;-69
2023/04/19 08:22:56;;;;;;;10.07;9.57;;;;;;;12.43;81.80;92429.53;5109009;28;20180;-69
2023/04/19 08:25:25;;;;;;;9.73;9.23;;;;;;;12.46;80.57;92425.56;5109294;28;21762;-70
2023/04/19 08:27:51;;;;;;;9.67;9.17;;;;;;;12.07;81.72;92439.16;5111494;28;20184;-68
2023/04/19 08:30:16;;;;;;;10.73;10.03;;;;;;;11.66;82.15;92442.81;5110568;28;20231;-68
2023/04/19 08:32:42;;;;;;;9.80;9.23;;;;;;;11.52;83.33;92431.53;5111491;28;20195;-70
2023/04/19 08:35:07;;;;;;;10.43;9.83;;;;;;;12.26;81.33;92436.44;5109589;28;20226;-69
2023/04/19 08:37:33;;;;;;;9.53;9.03;;;;;;;12.12;80.84;92433.84;5109104;28;20187;-68
2023/04/19 08:39:58;;;;;;;10.63;10.13;;;;;;;11.84;82.71;92428.88;5109986;28;20289;-67
2023/04/19 08:42:24;;;;;;;10.37;9.77;;;;;;;12.10;83.58;92429.94;5110671;28;20199;-69
2023/04/19 08:44:49;;;;;;;11.07;10.43;;;;;;;11.98;82.88;92427.84;5110383;28;20242;-69
2023/04/19 08:47:15;;;;;;;9.93;9.43;;;;;;;11.82;83.62;92423.16;5110676;28;20214;-69
2023/04/19 08:49:41;;;;;;;10.07;9.57;;;;;;;12.09;82.27;92425.78;5110465;28;20223;-68
2023/04/19 08:52:11;;;;;;;10.03;9.43;;;;;;;12.59;80.54;92420.28;5109091;28;20261;-69
2023/04/19 08:54:37;;;;;;;9.50;8.80;;;;;;;12.20;80.88;92427.16;5108844;28;20195;-69
2023/04/19 08:57:04;;;;;;;10.63;9.93;;;;;;;11.84;81.90;92428.88;5109720;28;20182;-69
2023/04/19 08:59:29;;;;;;;11.00;10.40;;;;;;;12.09;81.95;92426.56;5109624;28;20217;-69
2023/04/19 09:02:01;;;;;;;10.03;9.47;;;;;;;12.48;79.68;92421.56;5109039;28;20229;-70
2023/04/19 09:04:26;;;;;;;10.47;9.87;;;;;;;11.81;80.85;92377.16;5109568;28;20208;-69
2023/04/19 09:06:52;;;;;;;9.73;9.23;;;;;;;12.28;80.16;92418.59;5108761;28;20223;-69
2023/04/19 09:09:26;;;;;;;11.13;10.43;;;;;;;12.37;81.27;92416.84;5107316;28;20188;-68
2023/04/19 09:11:51;;;;;;;9.83;9.30;;;;;;;12.38;79.71;92402.69;5088538;28;20240;-69
2023/04/19 09:14:19;;;;;;;10.90;10.20;;;;;;;12.47;78.81;92414.78;5089179;28;20187;-68
2023/04/19 09:16:45;;;;;;;8.90;8.50;;;;;;;13.29;76.51;92412.66;5108822;28;20266;-71
2023/04/19 09:19:11;;;;;;;10.43;9.93;;;;;;;13.56;74.95;92414.38;5110100;28;20188;-70
2023/04/19 09:21:37;;;;;;;10.10;9.40;;;;;;;12.82;76.01;92410.63;5107444;27;20258;-68
2023/04/19 09:24:03;;;;;;;10.20;9.70;;;;;;;12.96;77.10;92393.75;5109172;28;20324;-68
2023/04/19 09:26:29;;;;;;;10.60;10.00;;;;;;;13.16;77.36;92407.50;5108870;27;20227;-69
2023/04/19 09:28:59;;;;;;;10.63;10.00;;;;;;;13.07;77.32;92410.06;5110362;28;20215;-69
2023/04/19 09:31:26;;;;;;;10.27;9.67;;;;;;;13.88;77.69;92406.97;5108829;28;20255;-69
2023/04/19 09:33:53;;;;;;;10.60;9.97;;;;;;;13.07;77.78;92404.84;5108801;28;20227;-69
2023/04/19 09:36:28;;;;;;;9.90;9.37;;;;;;;13.12;77.23;92411.81;5108251;28;20243;-75
2023/04/19 09:38:54;;;;;;;12.17;11.30;;;;;;;13.02;76.58;92404.94;5108948;28;20191;-73
2023/04/19 09:41:20;;;;;;;10.77;9.80;;;;;;;13.77;75.36;92407.53;5107878;28;20247;-73
2023/04/19 09:43:45;;;;;;;10.90;10.13;;;;;;;13.86;73.63;92389.97;5107361;28;20279;-72
2023/04/19 09:46:41;;;;;;;10.30;9.73;;;;;;;13.37;76.82;92401.47;5108576;28;20227;-73
2023/04/19 09:49:16;;;;;;;9.83;9.30;;;;;;;13.13;76.34;92393.16;5104205;28;20206;-72
2023/04/19 09:51:49;;;;;;;10.23;9.63;;;;;;;13.00;76.49;92393.19;5109361;28;20246;-73
2023/04/19 09:54:17;;;;;;;10.33;9.83;;;;;;;13.27;75.60;92388.63;5105516;28;20219;-72
2023/04/19 09:56:43;;;;;;;10.90;10.10;;;;;;;13.70;74.20;92391.44;5108149;28;20236;-72
2023/04/19 09:59:09;;;;;;;10.00;9.23;;;;;;;13.04;78.00;92367.97;5107719;28;20197;-73
2023/04/19 10:02:03;;;;;;;9.53;9.13;;;;;;;13.02;75.82;92386.59;5106840;28;20227;-72
2023/04/19 10:04:29;;;;;;;10.27;9.67;;;;;;;13.04;77.36;92363.50;5105138;27;20228;-72
2023/04/19 10:06:54;;;;;;;9.37;8.87;;;;;;;12.84;79.06;92385.66;5108810;28;20236;-72
2023/04/19 10:09:21;;;;;;;10.00;9.50;;;;;;;12.71;77.97;92375.25;5107179;28;20225;-72
2023/04/19 10:11:48;;;;;;;9.87;9.47;;;;;;;12.51;77.15;92376.47;5109203;28;20230;-72
2023/04/19 10:14:15;;;;;;;10.27;9.77;;;;;;;12.61;78.20;92380.69;5107945;28;20175;-71
2023/04/19 10:16:40;;;;;;;9.97;9.47;;;;;;;12.55;78.98;92369.59;5107770;28;20216;-73
2023/04/19 10:19:16;;;;;;;9.90;9.40;;;;;;;12.75;78.62;92370.97;5108375;28;20194;-68
2023/04/19 10:21:42;;;;;;;9.93;9.20;;;;;;;12.72;77.39;92374.16;5107719;28;20216;-70
2023/04/19 10:24:09;;;;;;;9.07;8.50;;;;;;;12.35;79.36;92379.72;5108129;28;20219;-70
2023/04/19 10:27:10;;;;;;;9.23;8.77;;;;;;;12.05;80.43;92367.25;5106217;28;20218;-70
2023/04/19 10:29:56;;;;;;;11.17;10.13;;;;;;;12.62;78.36;92367.31;5107657;28;20220;-69
2023/04/19 10:32:23;;;;;;;9.97;9.37;;;;;;;12.33;77.87;92321.63;5108487;28;20191;-70
2023/04/19 10:34:51;;;;;;;8.93;8.37;;;;;;;12.38;79.37;92363.41;5111394;27;20239;-68
2023/04/19 10:37:21;;;;;;;8.37;7.97;;;;;;;12.21;79.67;92365.88;5111631;28;20201;-68
2023/04/19 10:39:47;;;;;;;9.57;8.97;;;;;;;12.53;78.87;92357.84;5110402;28;20234;-68
2023/04/19 10:42:12;;;;;;;9.30;8.90;;;;;;;12.68;77.67;92347.03;5113551;28;20191;-72
2023/04/19 10:44:37;;;;;;;8.97;8.57;;;;;;;13.21;76.11;92358.38;5112055;28;20246;-70
2023/04/19 10:47:04;;;;;;;9.70;9.20;;;;;;;12.86;74.81;92351.31;5110919;28;20180;-70
2023/04/19 10:49:30;;;;;;;9.60;9.07;;;;;;;13.08;76.70;92353.97;5111444;28;20200;-71
2023/04/19 10:51:56;;;;;;;9.27;8.77;;;;;;;12.50;77.17;92306.06;5112988;28;20195;-71
2023/04/19 10:54:37;;;;;;;8.73;8.23;;;;;;;12.64;77.45;92352.09;5111565;28;20222;-71
2023/04/19 10:57:04;;;;;;;9.30;8.80;;;;;;;12.65;76.78;92337.91;5112312;28;20222;-70
2023/04/19 10:59:39;;;;;;;10.13;9.57;;;;;;;12.90;73.57;92341.81;5112270;28;20222;-70
2023/04/19 11:02:31;;;;;;;8.87;8.37;;;;;;;13.15;74.35;92343.84;5111308;28;20871;-71
2023/04/19 11:05:00;;;;;;;8.33;7.97;;;;;;;13.06;72.34;92314.16;5109707;28;20239;-71
2023/04/19 11:07:25;;;;;;;10.20;9.60;;;;;;;13.34;71.19;92344.38;5110921;28;20680;-71
2023/04/19 11:09:51;;;;;;;9.30;8.70;;;;;;;13.00;71.13;92336.34;5111850;27;20305;-71
2023/04/19 11:12:18;;;;;;;9.77;9.27;;;;;;;13.16;72.83;92342.75;5111444;28;20256;-71
2023/04/19 11:14:51;;;;;;;8.43;8.03;;;;;;;13.09;71.95;92303.09;5109126;28;20230;-71
2023/04/19 11:17:30;;;;;;;10.40;9.80;;;;;;;13.56;71.91;92325.19;5112612;28;20183;-69
2023/04/19 11:19:56;;;;;;;8.90;8.20;;;;;;;13.56;72.23;92340.94;5111514;27;20227;-70
2023/04/19 11:22:41;;;;;;;9.47;8.97;;;;;;;13.17;70.80;92341.66;5112328;28;20184;-72